EKSP

Vojens Skrydstrup Airport

Vojens, Denmark
METAR EKSP 260350Z 34002KT CAVOK 11/09 Q1024 RMK SCT200
Observed Flight Rules
May-26 @ 03:50 UTC (34 minutes ago) Visual Flight Rules
Wind Visibility Clouds
340° at 2 knots 10,000+ meters
  • Clear skies
Temperatures Readings
Current 11°C / 52°F
Dewpoint 9°C / 48°F
Humidity 88%
Altimeter 30.24" Hg
Pressure 1024 hPa
Elevation 40
METAR EKSP 260350Z 34002KT CAVOK 11/09 Q1024 RMK SCT200
Observed Flight Rules
May-26 @ 03:50 UTC
(34 minutes ago)
VFR
Wind Visibility
340° at 2 knots 10,000+ meters
Clouds
  • Clear skies
Temperature Dewpoint
11°C / 52°F 9°C / 48°F
Humidity Altimeter Pressure
88% 30.24" Hg 1024 hPa